Time;durP1;ratioP1;P1;durP2;ratioP2;P2;SDS_P1;SDS_P2;PMS_P1;PMS_P2;Temp;Humidity;BMP_temperature;BMP_pressure;BME280_temperature;BME280_humidity;BME280_pressure;Samples;Min_cycle;Max_cycle;Signal;HPM_P1;HPM_P2
2021/01/12 00:01:44;;;;;;;18.20;7.87;;;;;;;4.79;100.00;99902.13;5024259;28;20277;-66
2021/01/12 00:04:10;;;;;;;16.93;6.87;;;;;;;4.78;100.00;99896.09;5019516;28;20066;-66
2021/01/12 00:06:36;;;;;;;19.73;8.33;;;;;;;4.79;100.00;99884.00;5018180;28;20291;-66
2021/01/12 00:09:02;;;;;;;18.83;8.07;;;;;;;4.79;100.00;99886.59;5021939;28;20060;-66
2021/01/12 00:11:28;;;;;;;16.53;7.70;;;;;;;4.83;100.00;99873.69;5014375;28;20360;-65
2021/01/12 00:13:53;;;;;;;16.27;7.43;;;;;;;4.90;100.00;99879.81;5012414;28;20278;-67
2021/01/12 00:16:23;;;;;;;16.40;7.13;;;;;;;4.89;100.00;99878.09;5012871;28;20033;-66
2021/01/12 00:18:48;;;;;;;14.63;7.23;;;;;;;4.91;100.00;99876.38;5028411;28;20450;-66
2021/01/12 00:21:25;;;;;;;17.23;6.73;;;;;;;4.85;100.00;99866.84;5015148;28;20276;-67
2021/01/12 00:23:50;;;;;;;16.30;7.50;;;;;;;4.94;100.00;99866.03;5027383;28;20377;-67
2021/01/12 00:26:16;;;;;;;16.33;7.07;;;;;;;4.97;100.00;99871.28;5017317;28;20333;-67
2021/01/12 00:28:41;;;;;;;18.73;7.93;;;;;;;4.99;100.00;99864.38;5014954;28;20033;-67
2021/01/12 00:31:07;;;;;;;18.53;7.67;;;;;;;4.95;100.00;99853.09;5014158;28;20477;-67
2021/01/12 00:33:32;;;;;;;15.83;7.30;;;;;;;4.95;100.00;99853.09;5022096;28;20061;-66
2021/01/12 00:36:05;;;;;;;16.20;7.60;;;;;;;5.02;100.00;99853.19;5025128;28;20037;-66
2021/01/12 00:38:30;;;;;;;17.53;7.63;;;;;;;5.07;100.00;99846.31;5025971;28;20075;-65
2021/01/12 00:40:56;;;;;;;15.13;7.10;;;;;;;5.03;100.00;99844.56;5018267;28;20292;-67
2021/01/12 00:43:24;;;;;;;18.40;8.27;;;;;;;4.97;100.00;99845.38;5019167;28;20053;-66
2021/01/12 00:45:49;;;;;;;19.37;8.53;;;;;;;5.02;100.00;99838.50;5014984;28;20037;-65
2021/01/12 00:48:15;;;;;;;17.83;8.10;;;;;;;5.02;100.00;99832.44;5014903;28;20648;-65
2021/01/12 00:50:40;;;;;;;14.90;6.53;;;;;;;5.02;100.00;99838.50;5021346;28;20052;-66
2021/01/12 00:53:06;;;;;;;14.90;6.30;;;;;;;5.04;100.00;99831.59;5026773;28;20028;-67
2021/01/12 00:55:31;;;;;;;14.93;6.70;;;;;;;5.09;100.00;99829.94;5015838;28;20098;-66
2021/01/12 00:57:56;;;;;;;11.37;5.70;;;;;;;5.08;100.00;99833.38;5012678;28;20061;-67
2021/01/12 01:00:22;;;;;;;18.00;8.33;;;;;;;5.02;100.00;99830.72;5020483;28;20025;-66
2021/01/12 01:02:47;;;;;;;12.90;5.77;;;;;;;5.04;100.00;99816.06;5015830;28;20022;-65
2021/01/12 01:05:12;;;;;;;16.13;6.80;;;;;;;5.08;100.00;99820.41;5018198;28;20542;-67
2021/01/12 01:07:38;;;;;;;17.43;8.00;;;;;;;5.07;100.00;99805.72;5015345;28;20041;-67
2021/01/12 01:10:04;;;;;;;19.17;7.87;;;;;;;5.04;100.00;99804.84;5011854;28;20029;-66
2021/01/12 01:12:29;;;;;;;16.67;7.03;;;;;;;5.06;100.00;99795.34;5010653;28;20037;-66
2021/01/12 01:14:55;;;;;;;18.70;7.43;;;;;;;5.06;100.00;99800.53;5015285;28;20036;-66
2021/01/12 01:17:20;;;;;;;17.63;7.53;;;;;;;5.10;100.00;99799.72;5012546;28;20558;-66
2021/01/12 01:19:45;;;;;;;15.47;6.60;;;;;;;5.13;100.00;99798.03;5030769;28;20044;-66
2021/01/12 01:22:11;;;;;;;19.90;8.07;;;;;;;5.07;100.00;99800.53;5026483;28;20091;-67
2021/01/12 01:24:36;;;;;;;15.87;6.30;;;;;;;5.12;100.00;99793.69;5018253;28;20025;-66
2021/01/12 01:27:02;;;;;;;14.70;6.40;;;;;;;5.09;100.00;99793.69;5017377;28;20026;-66
2021/01/12 01:29:27;;;;;;;14.13;6.00;;;;;;;5.14;100.00;99791.13;5011953;28;20033;-65
2021/01/12 01:31:53;;;;;;;16.67;7.40;;;;;;;5.12;100.00;99791.09;5010936;28;20033;-66
2021/01/12 01:34:18;;;;;;;11.93;4.83;;;;;;;5.21;100.00;99783.41;5011050;28;20045;-67
2021/01/12 01:36:44;;;;;;;12.63;5.73;;;;;;;5.19;100.00;99779.91;5011608;28;20072;-67
2021/01/12 01:39:10;;;;;;;11.60;6.33;;;;;;;5.26;100.00;99773.94;5024012;28;20028;-66
2021/01/12 01:41:36;;;;;;;14.73;6.67;;;;;;;5.21;100.00;99778.22;5013043;28;20022;-66
2021/01/12 01:44:02;;;;;;;10.50;5.37;;;;;;;5.22;100.00;99771.31;5021320;28;20363;-67
2021/01/12 01:46:27;;;;;;;12.03;5.20;;;;;;;5.17;100.00;99775.59;5015478;28;20021;-67
2021/01/12 01:48:53;;;;;;;8.73;4.50;;;;;;;5.24;100.00;99761.84;5019650;28;20122;-66
2021/01/12 01:51:18;;;;;;;13.30;6.40;;;;;;;5.17;100.00;99766.09;5026392;28;20033;-66
2021/01/12 01:53:45;;;;;;;12.13;5.43;;;;;;;5.26;100.00;99770.47;5020550;28;20025;-65
2021/01/12 01:56:11;;;;;;;14.63;6.60;;;;;;;5.23;100.00;99766.16;5016652;28;20483;-65
2021/01/12 01:58:41;;;;;;;12.43;6.13;;;;;;;5.22;100.00;99769.59;5013067;28;20340;-66
2021/01/12 02:01:07;;;;;;;12.87;5.37;;;;;;;5.27;100.00;99757.53;5011252;28;20032;-66
2021/01/12 02:04:01;;;;;;;13.00;5.93;;;;;;;5.26;100.00;99755.78;5012914;28;20289;-67
2021/01/12 02:06:32;;;;;;;8.93;4.53;;;;;;;5.26;100.00;99750.63;5007554;28;20379;-66
2021/01/12 02:09:22;;;;;;;11.20;4.97;;;;;;;5.28;100.00;99738.53;5012685;28;20268;-65
2021/01/12 02:11:56;;;;;;;14.67;6.77;;;;;;;5.23;100.00;99750.59;5029054;28;20296;-66
2021/01/12 02:14:25;;;;;;;13.53;6.53;;;;;;;5.25;100.00;99754.06;5015731;28;20283;-66
2021/01/12 02:16:52;;;;;;;13.37;5.60;;;;;;;5.26;100.00;99737.66;5026330;28;20298;-65
2021/01/12 02:19:20;;;;;;;9.93;4.77;;;;;;;5.28;100.00;99737.66;5024961;28;20770;-66
2021/01/12 02:21:58;;;;;;;12.60;5.53;;;;;;;5.27;100.00;99736.78;5019350;28;20687;-66
2021/01/12 02:24:23;;;;;;;9.70;3.73;;;;;;;5.34;100.00;99726.47;5025435;28;20343;-66
2021/01/12 02:26:49;;;;;;;12.73;5.67;;;;;;;5.32;100.00;99720.41;5016530;28;20284;-66
2021/01/12 02:29:14;;;;;;;10.80;5.20;;;;;;;5.29;100.00;99714.34;5018928;28;20104;-67
2021/01/12 02:31:40;;;;;;;10.13;4.77;;;;;;;5.33;100.00;99719.53;5016882;28;20038;-65
2021/01/12 02:34:11;;;;;;;12.00;5.50;;;;;;;5.35;100.00;99713.53;5028154;28;20033;-66
2021/01/12 02:36:37;;;;;;;9.90;4.23;;;;;;;5.42;100.00;99701.47;5031858;28;20052;-66
2021/01/12 02:39:03;;;;;;;10.30;4.47;;;;;;;5.40;100.00;99692.81;5015242;28;20281;-65
2021/01/12 02:41:32;;;;;;;12.40;4.40;;;;;;;5.33;100.00;99698.81;5033004;28;20033;-65
2021/01/12 02:43:58;;;;;;;11.00;5.10;;;;;;;5.33;100.00;99698.81;5022915;28;20296;-66
2021/01/12 02:46:24;;;;;;;12.37;5.20;;;;;;;5.34;100.00;99685.88;5021294;28;20368;-66
2021/01/12 02:48:49;;;;;;;11.97;5.03;;;;;;;5.36;100.00;99688.47;5022856;28;20284;-65
2021/01/12 02:51:15;;;;;;;11.37;5.03;;;;;;;5.39;100.00;99681.56;5022139;28;20041;-67
2021/01/12 02:53:40;;;;;;;12.73;5.60;;;;;;;5.37;100.00;99679.84;5021463;28;20036;-67
2021/01/12 02:56:05;;;;;;;12.90;5.63;;;;;;;5.36;100.00;99671.19;5022646;28;20040;-66
2021/01/12 02:58:31;;;;;;;10.30;4.70;;;;;;;5.39;100.00;99670.34;5031465;28;20035;-66
2021/01/12 03:00:56;;;;;;;13.60;5.63;;;;;;;5.43;100.00;99664.31;5023738;28;20483;-67
2021/01/12 03:03:21;;;;;;;12.07;5.10;;;;;;;5.42;100.00;99654.78;5026742;28;20049;-66
2021/01/12 03:05:47;;;;;;;13.27;5.33;;;;;;;5.40;100.00;99656.50;5020018;28;20040;-66
2021/01/12 03:08:14;;;;;;;7.93;4.00;;;;;;;5.41;100.00;99645.28;5019417;28;20060;-67
2021/01/12 03:10:39;;;;;;;10.47;4.83;;;;;;;5.41;100.00;99640.09;5017988;28;20022;-66
2021/01/12 03:13:05;;;;;;;12.03;5.13;;;;;;;5.38;100.00;99637.50;5027763;28;20838;-66
2021/01/12 03:15:31;;;;;;;10.50;5.03;;;;;;;5.40;100.00;99633.19;5024243;28;20526;-66
2021/01/12 03:17:56;;;;;;;8.90;3.70;;;;;;;5.50;100.00;99622.00;5017964;28;20030;-66
2021/01/12 03:20:21;;;;;;;8.80;3.60;;;;;;;5.52;100.00;99617.69;5027348;28;20053;-66
2021/01/12 03:22:47;;;;;;;7.43;3.57;;;;;;;5.52;100.00;99607.31;5015137;28;20084;-66
2021/01/12 03:25:12;;;;;;;7.80;3.40;;;;;;;5.56;100.00;99609.06;5029573;28;20111;-66
2021/01/12 03:27:38;;;;;;;9.47;4.13;;;;;;;5.57;100.00;99600.41;5015120;28;20034;-65
2021/01/12 03:30:04;;;;;;;10.20;4.63;;;;;;;5.57;100.00;99596.13;5017923;28;20039;-65
2021/01/12 03:32:30;;;;;;;9.20;3.83;;;;;;;5.61;100.00;99591.81;5013854;28;20121;-66
2021/01/12 03:34:55;;;;;;;11.27;4.90;;;;;;;5.55;100.00;99578.81;5025726;28;20441;-64
2021/01/12 03:37:21;;;;;;;11.70;4.87;;;;;;;5.54;100.00;99579.66;5027581;28;20033;-66
2021/01/12 03:39:47;;;;;;;8.23;3.83;;;;;;;5.56;100.00;99577.94;5030807;28;20030;-66
2021/01/12 03:42:12;;;;;;;11.33;3.77;;;;;;;5.54;100.00;99566.69;5023355;28;20305;-65
2021/01/12 03:44:37;;;;;;;7.50;3.00;;;;;;;5.55;100.00;99563.25;5021020;28;20033;-66
2021/01/12 03:47:03;;;;;;;6.83;2.53;;;;;;;5.58;100.00;99558.09;5025251;28;20120;-66
2021/01/12 03:49:28;;;;;;;8.03;3.57;;;;;;;5.58;100.00;99571.06;5026097;28;20036;-65
2021/01/12 03:51:54;;;;;;;8.40;3.63;;;;;;;5.61;100.00;99565.88;5022359;28;20021;-67
2021/01/12 03:54:19;;;;;;;6.10;2.87;;;;;;;5.64;100.00;99559.81;5022967;28;20109;-66
2021/01/12 03:56:44;;;;;;;6.70;2.67;;;;;;;5.60;100.00;99558.97;5014662;28;20112;-65
2021/01/12 03:59:10;;;;;;;8.67;3.63;;;;;;;5.59;100.00;99552.03;5012563;28;20030;-67
2021/01/12 04:01:41;;;;;;;7.97;3.63;;;;;;;5.56;100.00;99557.19;5024199;28;20055;-66
2021/01/12 04:04:07;;;;;;;12.40;5.20;;;;;;;5.57;100.00;99548.56;5026860;28;20067;-66
2021/01/12 04:06:32;;;;;;;9.77;4.20;;;;;;;5.52;100.00;99542.50;5030403;28;20030;-66
2021/01/12 04:08:58;;;;;;;10.90;4.80;;;;;;;5.55;100.00;99547.69;5015477;28;20034;-66
2021/01/12 04:11:23;;;;;;;9.63;4.33;;;;;;;5.56;100.00;99534.72;5016364;28;20028;-65
2021/01/12 04:13:48;;;;;;;5.93;2.93;;;;;;;5.61;100.00;99534.75;5023389;28;20052;-65
2021/01/12 04:16:14;;;;;;;7.10;3.03;;;;;;;5.66;100.00;99535.63;5014779;28;20026;-66
2021/01/12 04:18:39;;;;;;;8.60;3.93;;;;;;;5.66;100.00;99520.06;5027109;28;20508;-65
2021/01/12 04:21:05;;;;;;;6.60;3.17;;;;;;;5.71;100.00;99528.72;5031217;28;20492;-65
2021/01/12 04:23:30;;;;;;;8.77;3.83;;;;;;;5.65;100.00;99520.91;5025363;28;20040;-66
2021/01/12 04:25:56;;;;;;;8.80;3.73;;;;;;;5.58;100.00;99514.88;5012602;28;20029;-65
2021/01/12 04:28:21;;;;;;;8.57;3.80;;;;;;;5.60;100.00;99522.66;5025347;28;20057;-66
2021/01/12 04:30:47;;;;;;;8.63;3.57;;;;;;;5.63;100.00;99512.28;5018949;28;20063;-66
2021/01/12 04:33:13;;;;;;;7.57;3.20;;;;;;;5.64;100.00;99503.63;5016312;28;20429;-65
2021/01/12 04:35:38;;;;;;;9.33;3.27;;;;;;;5.62;100.00;99514.88;5015539;28;20037;-65
2021/01/12 04:38:04;;;;;;;7.57;3.17;;;;;;;5.64;100.00;99514.00;5018529;28;20026;-66
2021/01/12 04:40:29;;;;;;;8.00;3.70;;;;;;;5.60;100.00;99517.47;5013040;28;20021;-65
2021/01/12 04:42:58;;;;;;;10.30;4.10;;;;;;;5.58;100.00;99506.25;5012405;28;20025;-66
2021/01/12 04:45:24;;;;;;;9.10;3.90;;;;;;;5.64;100.00;99511.41;5029078;28;20053;-66
2021/01/12 04:47:50;;;;;;;7.50;3.10;;;;;;;5.59;100.00;99502.78;5015518;28;20281;-66
2021/01/12 04:50:15;;;;;;;7.17;3.10;;;;;;;5.66;100.00;99501.91;5028904;28;20060;-65
2021/01/12 04:52:52;;;;;;;7.87;3.33;;;;;;;5.60;100.00;99496.72;5013187;28;20045;-66
2021/01/12 04:55:19;;;;;;;7.73;2.80;;;;;;;5.64;100.00;99490.66;5022226;28;20098;-65
2021/01/12 04:57:45;;;;;;;7.07;2.77;;;;;;;5.64;100.00;99488.06;5023797;28;20025;-66
2021/01/12 05:00:18;;;;;;;8.17;3.20;;;;;;;5.64;100.00;99476.84;5022721;28;20334;-66
2021/01/12 05:03:08;;;;;;;10.40;3.67;;;;;;;5.64;100.00;99476.84;5016808;28;20814;-66
2021/01/12 05:05:36;;;;;;;6.80;3.10;;;;;;;5.65;100.00;99475.97;5011754;28;20297;-67
2021/01/12 05:08:04;;;;;;;8.30;3.33;;;;;;;5.61;100.00;99488.09;5015209;28;20602;-66
2021/01/12 05:10:34;;;;;;;7.17;2.73;;;;;;;5.70;100.00;99479.47;5026531;28;20235;-66
2021/01/12 05:13:01;;;;;;;7.63;2.87;;;;;;;5.62;100.00;99469.06;5011059;28;20296;-65
2021/01/12 05:15:28;;;;;;;10.47;2.93;;;;;;;5.59;100.00;99469.06;5022355;28;20283;-66
2021/01/12 05:17:56;;;;;;;9.23;3.43;;;;;;;5.59;100.00;99480.31;5011738;28;20287;-66
2021/01/12 05:20:26;;;;;;;8.30;3.30;;;;;;;5.56;100.00;99482.00;5024539;28;20284;-66
2021/01/12 05:23:06;;;;;;;9.10;3.73;;;;;;;5.52;100.00;99477.69;5023585;28;20356;-66
2021/01/12 05:25:34;;;;;;;9.07;3.40;;;;;;;5.55;100.00;99472.50;5023096;28;20280;-66
2021/01/12 05:28:03;;;;;;;12.53;3.30;;;;;;;5.56;100.00;99463.84;5011096;28;20307;-65
2021/01/12 05:30:29;;;;;;;8.17;3.10;;;;;;;5.54;100.00;99465.59;5016304;28;20288;-65
2021/01/12 05:32:56;;;;;;;7.60;3.23;;;;;;;5.59;100.00;99469.94;5010218;28;20281;-65
2021/01/12 05:35:25;;;;;;;7.33;2.63;;;;;;;5.60;100.00;99455.25;5015989;28;20055;-66
2021/01/12 05:38:00;;;;;;;8.10;3.50;;;;;;;5.58;100.00;99447.47;5024594;28;20613;-66
2021/01/12 05:40:29;;;;;;;9.50;3.60;;;;;;;5.58;100.00;99446.59;5011598;28;20284;-65
2021/01/12 05:43:13;;;;;;;6.93;2.67;;;;;;;5.61;100.00;99440.53;5015703;28;20352;-66
2021/01/12 05:45:41;;;;;;;7.23;3.00;;;;;;;5.64;100.00;99438.81;5013541;28;20288;-66
2021/01/12 05:48:07;;;;;;;7.80;3.17;;;;;;;5.65;100.00;99435.34;5010978;28;20321;-65
2021/01/12 05:50:33;;;;;;;10.27;4.00;;;;;;;5.59;100.00;99446.59;5024638;28;20051;-66
2021/01/12 05:53:06;;;;;;;9.37;2.63;;;;;;;5.65;100.00;99442.25;5018818;28;20292;-65
2021/01/12 05:55:40;;;;;;;6.60;2.63;;;;;;;5.64;100.00;99444.00;5020927;28;20040;-66
2021/01/12 05:58:28;;;;;;;7.33;2.70;;;;;;;5.62;100.00;99443.13;5019251;28;20041;-66
2021/01/12 06:00:54;;;;;;;6.57;2.63;;;;;;;5.63;100.00;99444.84;5013677;28;20026;-66
2021/01/12 06:03:24;;;;;;;6.60;2.77;;;;;;;5.75;100.00;99444.88;5016903;28;20026;-66
2021/01/12 06:05:51;;;;;;;6.13;2.70;;;;;;;5.76;100.00;99446.59;5014544;28;20083;-66
2021/01/12 06:08:16;;;;;;;7.97;3.00;;;;;;;5.78;100.00;99433.63;5018675;28;20030;-65
2021/01/12 06:10:44;;;;;;;6.63;2.37;;;;;;;5.77;100.00;99448.31;5023091;28;20363;-66
2021/01/12 06:13:14;;;;;;;7.47;2.87;;;;;;;5.72;100.00;99444.88;5025243;28;20041;-66
2021/01/12 06:15:42;;;;;;;7.70;3.00;;;;;;;5.66;100.00;99444.84;5017536;28;20037;-66
2021/01/12 06:18:12;;;;;;;5.37;2.37;;;;;;;5.75;100.00;99444.00;5014284;28;20289;-65
2021/01/12 06:20:56;;;;;;;8.50;2.70;;;;;;;5.71;100.00;99442.28;5025331;28;20287;-66
2021/01/12 06:23:37;;;;;;;7.73;3.00;;;;;;;5.76;100.00;99445.72;5019799;28;20368;-66
2021/01/12 06:26:03;;;;;;;9.33;2.83;;;;;;;5.75;100.00;99439.69;5019739;28;20277;-66
2021/01/12 06:28:29;;;;;;;6.50;2.47;;;;;;;5.80;100.00;99437.94;5017734;28;20287;-66
2021/01/12 06:30:55;;;;;;;6.50;2.93;;;;;;;5.80;100.00;99443.13;5022384;28;20380;-66
2021/01/12 06:33:21;;;;;;;8.77;2.77;;;;;;;5.79;100.00;99436.22;5028815;28;20030;-66
2021/01/12 06:35:50;;;;;;;8.57;3.10;;;;;;;5.75;100.00;99444.88;5019563;28;20272;-66
2021/01/12 06:38:20;;;;;;;6.97;3.00;;;;;;;5.73;100.00;99441.41;5014582;28;20508;-65
2021/01/12 06:40:51;;;;;;;5.80;2.63;;;;;;;5.79;100.00;99441.41;5023820;28;20352;-66
2021/01/12 06:43:17;;;;;;;7.60;3.03;;;;;;;5.81;100.00;99446.59;5019889;28;20787;-65
2021/01/12 06:45:46;;;;;;;8.70;3.33;;;;;;;5.75;100.00;99446.59;5013088;28;20284;-66
2021/01/12 06:48:14;;;;;;;9.27;3.00;;;;;;;5.73;100.00;99446.59;5020953;28;20033;-66
2021/01/12 06:50:45;;;;;;;7.90;3.33;;;;;;;5.72;100.00;99449.19;5020038;28;20090;-64
2021/01/12 06:53:12;;;;;;;8.73;3.10;;;;;;;5.72;100.00;99450.06;5025363;28;20711;-64
2021/01/12 06:55:38;;;;;;;8.27;2.50;;;;;;;5.72;100.00;99444.88;5025839;28;20485;-65
2021/01/12 06:58:08;;;;;;;9.73;3.27;;;;;;;5.71;100.00;99448.34;5034612;28;20272;-66
2021/01/12 07:00:35;;;;;;;9.07;2.77;;;;;;;5.72;100.00;99447.47;5014172;28;20026;-66
2021/01/12 07:03:01;;;;;;;6.80;2.63;;;;;;;5.75;100.00;99450.06;5030715;28;20315;-65
2021/01/12 07:05:40;;;;;;;6.80;2.73;;;;;;;5.79;100.00;99446.59;5016306;28;20281;-65
2021/01/12 07:08:10;;;;;;;7.47;3.10;;;;;;;5.79;100.00;99451.78;5015980;28;20034;-65
2021/01/12 07:10:42;;;;;;;6.07;2.53;;;;;;;5.77;100.00;99453.50;5022274;28;20025;-64
2021/01/12 07:13:08;;;;;;;6.80;2.63;;;;;;;5.81;100.00;99456.97;5030479;28;20569;-65
2021/01/12 07:15:44;;;;;;;5.07;2.23;;;;;;;5.93;100.00;99456.13;5015701;28;20030;-66
2021/01/12 07:18:10;;;;;;;4.90;2.20;;;;;;;5.87;100.00;99477.72;5015842;28;20061;-64
2021/01/12 07:20:37;;;;;;;6.33;2.10;;;;;;;5.73;100.00;99482.91;5018781;28;20037;-65
2021/01/12 07:23:07;;;;;;;6.67;2.00;;;;;;;5.58;100.00;99488.09;5018050;28;20524;-65
2021/01/12 07:25:41;;;;;;;4.53;2.20;;;;;;;5.47;100.00;99495.84;5019376;28;20339;-66
2021/01/12 07:28:10;;;;;;;7.50;2.47;;;;;;;5.38;100.00;99501.00;5014375;28;20949;-64
2021/01/12 07:30:40;;;;;;;5.23;2.07;;;;;;;5.30;100.00;99498.34;5020640;28;20030;-65
2021/01/12 07:33:07;;;;;;;5.37;2.17;;;;;;;5.24;100.00;99503.53;5021913;28;20300;-66
2021/01/12 07:35:35;;;;;;;5.33;2.23;;;;;;;5.23;100.00;99508.72;5025927;28;20277;-67
2021/01/12 07:38:01;;;;;;;8.17;2.20;;;;;;;5.19;100.00;99509.56;5017852;28;20272;-66
2021/01/12 07:40:29;;;;;;;5.27;2.20;;;;;;;5.12;100.00;99503.50;5012937;28;20046;-64
2021/01/12 07:42:54;;;;;;;7.80;2.77;;;;;;;5.12;100.00;99516.44;5012519;28;20121;-65
2021/01/12 07:45:22;;;;;;;5.90;2.30;;;;;;;5.10;100.00;99520.75;5013455;28;20367;-65
2021/01/12 07:47:53;;;;;;;5.03;2.07;;;;;;;5.06;100.00;99523.31;5013032;28;20033;-65
2021/01/12 07:50:20;;;;;;;6.13;2.60;;;;;;;5.04;100.00;99531.09;5012972;28;20350;-64
2021/01/12 07:52:46;;;;;;;6.80;2.50;;;;;;;4.99;100.00;99531.06;5012726;28;20281;-64
2021/01/12 07:55:12;;;;;;;5.47;2.50;;;;;;;4.96;100.00;99548.31;5012878;28;20362;-65
2021/01/12 07:57:37;;;;;;;3.97;1.63;;;;;;;4.77;100.00;99546.47;5016599;28;21133;-64
2021/01/12 08:00:08;;;;;;;5.83;1.33;;;;;;;4.56;100.00;99553.25;5013743;28;20095;-64
2021/01/12 08:02:34;;;;;;;4.10;1.33;;;;;;;4.42;100.00;99560.03;5012405;28;20029;-67
2021/01/12 08:05:03;;;;;;;3.77;1.07;;;;;;;4.27;100.00;99554.75;5012752;28;20279;-67
2021/01/12 08:07:28;;;;;;;1.97;0.90;;;;;;;4.18;100.00;99570.19;5012476;28;20269;-66
2021/01/12 08:09:57;;;;;;;3.87;1.30;;;;;;;4.13;100.00;99571.88;5026266;28;20642;-66
2021/01/12 08:12:24;;;;;;;1.50;0.60;;;;;;;4.04;100.00;99578.69;5012133;28;20065;-67
2021/01/12 08:14:50;;;;;;;4.60;0.90;;;;;;;3.98;100.00;99588.97;5012889;28;20307;-66
2021/01/12 08:17:26;;;;;;;3.77;1.10;;;;;;;3.95;100.00;99588.94;5012093;28;20276;-66
2021/01/12 08:19:55;;;;;;;4.40;0.87;;;;;;;3.91;100.00;99591.50;5012960;28;20304;-66
2021/01/12 08:22:22;;;;;;;6.93;0.97;;;;;;;3.87;100.00;99600.06;5011451;28;20304;-67
2021/01/12 08:24:48;;;;;;;3.43;0.80;;;;;;;3.84;100.00;99595.72;5026728;28;20314;-67
2021/01/12 08:27:18;;;;;;;2.87;0.80;;;;;;;3.81;100.00;99606.03;5011968;28;20691;-66
2021/01/12 08:29:43;;;;;;;4.50;0.80;;;;;;;3.82;100.00;99602.59;5031521;28;20358;-66
2021/01/12 08:32:14;;;;;;;3.83;0.77;;;;;;;3.81;100.00;99617.25;5021006;28;20384;-66
2021/01/12 08:34:42;;;;;;;4.90;1.00;;;;;;;3.81;100.00;99626.72;5011937;28;20029;-66
2021/01/12 08:37:09;;;;;;;8.37;0.87;;;;;;;3.81;100.00;99635.34;5017036;28;20786;-67
2021/01/12 08:39:35;;;;;;;5.73;1.33;;;;;;;3.82;100.00;99638.81;5011925;28;20335;-67
2021/01/12 08:42:06;;;;;;;6.67;0.80;;;;;;;3.79;100.00;99643.94;5011943;28;20311;-66
2021/01/12 08:44:39;;;;;;;11.07;1.20;;;;;;;3.78;100.00;99647.38;5012116;28;20342;-67
2021/01/12 08:47:06;;;;;;;4.30;0.90;;;;;;;3.77;100.00;99650.81;5012671;28;20708;-67
2021/01/12 08:49:33;;;;;;;5.30;0.90;;;;;;;3.78;100.00;99657.72;5011354;28;20335;-70
2021/01/12 08:52:01;;;;;;;6.60;0.93;;;;;;;3.80;100.00;99666.38;5011655;28;20285;-66
2021/01/12 08:54:27;;;;;;;9.20;1.00;;;;;;;3.78;100.00;99663.75;5012098;28;20276;-67
2021/01/12 08:57:05;;;;;;;7.77;1.20;;;;;;;3.77;100.00;99672.38;5011976;28;20269;-67
2021/01/12 08:59:33;;;;;;;4.03;0.97;;;;;;;3.76;100.00;99674.94;5011575;28;20269;-66
2021/01/12 09:01:59;;;;;;;5.90;1.07;;;;;;;3.81;100.00;99688.78;5011109;28;20342;-66
2021/01/12 09:04:27;;;;;;;3.83;1.27;;;;;;;3.79;100.00;99695.66;5011711;28;20272;-66
2021/01/12 09:07:05;;;;;;;5.03;1.03;;;;;;;3.78;100.00;99693.91;5012444;28;20265;-66
2021/01/12 09:09:31;;;;;;;7.87;1.17;;;;;;;3.79;100.00;99698.25;5011681;28;20322;-65
2021/01/12 09:12:00;;;;;;;5.67;1.60;;;;;;;3.81;100.00;99693.94;5022183;28;20292;-65
2021/01/12 09:14:32;;;;;;;5.40;1.03;;;;;;;3.81;100.00;99694.81;5012474;28;20407;-66
2021/01/12 09:17:02;;;;;;;8.15;1.10;;;;;;;3.82;100.00;99693.09;5011798;28;20304;-66
2021/01/12 09:19:36;;;;;;;3.50;1.00;;;;;;;3.84;100.00;99699.16;5011680;28;20550;-66
2021/01/12 09:22:10;;;;;;;5.67;1.33;;;;;;;3.90;100.00;99704.41;5030467;28;20275;-67
2021/01/12 09:24:38;;;;;;;6.83;1.67;;;;;;;3.94;100.00;99711.34;5028472;28;20268;-66
2021/01/12 09:27:04;;;;;;;9.50;1.67;;;;;;;3.98;100.00;99707.94;5011489;28;20276;-66
2021/01/12 09:29:37;;;;;;;11.77;2.03;;;;;;;4.00;100.00;99715.75;5021153;28;20346;-67
2021/01/12 09:32:02;;;;;;;8.18;1.85;;;;;;;3.95;100.00;99707.91;5028645;28;20103;-67
2021/01/12 09:34:27;;;;;;;8.27;2.10;;;;;;;3.96;100.00;99720.00;5010975;28;20049;-68
2021/01/12 09:36:53;;;;;;;7.23;2.17;;;;;;;3.99;100.00;99717.44;5011071;28;20030;-66
2021/01/12 09:39:18;;;;;;;4.73;1.53;;;;;;;3.98;100.00;99723.47;5009612;28;20021;-67
2021/01/12 09:41:44;;;;;;;6.57;1.80;;;;;;;3.93;100.00;99722.53;5009876;28;20028;-67
2021/01/12 09:44:09;;;;;;;12.37;2.30;;;;;;;3.94;100.00;99721.69;5010692;28;20030;-67
2021/01/12 09:46:36;;;;;;;10.17;2.60;;;;;;;3.96;100.00;99727.75;5012339;28;20033;-66
2021/01/12 09:49:01;;;;;;;5.70;1.67;;;;;;;3.98;100.00;99738.09;5030728;28;20075;-66
2021/01/12 09:51:27;;;;;;;7.70;1.53;;;;;;;4.04;100.00;99739.06;5012914;28;20281;-66
2021/01/12 09:53:52;;;;;;;8.63;1.53;;;;;;;4.07;100.00;99744.25;5010693;28;20030;-67
2021/01/12 09:56:20;;;;;;;9.30;2.03;;;;;;;4.17;100.00;99744.38;5010439;28;20065;-66
2021/01/12 09:58:46;;;;;;;4.63;1.10;;;;;;;4.25;100.00;99747.94;5010875;28;20041;-67
2021/01/12 10:01:15;;;;;;;6.17;1.30;;;;;;;4.41;100.00;99752.41;5010851;28;20284;-67
2021/01/12 10:03:41;;;;;;;7.43;1.33;;;;;;;4.51;100.00;99751.66;5021098;28;20272;-67
2021/01/12 10:06:06;;;;;;;5.83;1.20;;;;;;;4.58;100.00;99745.69;5028571;28;20276;-66
2021/01/12 10:08:32;;;;;;;9.97;1.70;;;;;;;4.62;100.00;99750.06;5026866;28;20576;-66
2021/01/12 10:10:58;;;;;;;6.50;1.57;;;;;;;4.66;100.00;99751.81;5020876;28;20060;-66
2021/01/12 10:13:24;;;;;;;5.20;1.40;;;;;;;4.60;100.00;99754.38;5015296;28;20676;-66
2021/01/12 10:15:50;;;;;;;3.93;0.90;;;;;;;4.57;100.00;99767.25;5010543;28;20080;-67
2021/01/12 10:18:15;;;;;;;3.80;0.77;;;;;;;4.52;100.00;99758.59;5010684;28;20122;-67
2021/01/12 10:20:41;;;;;;;6.67;1.53;;;;;;;4.54;100.00;99775.00;5010606;28;20040;-68
2021/01/12 10:23:07;;;;;;;7.47;1.90;;;;;;;4.56;100.00;99770.69;5013126;28;20109;-66
2021/01/12 10:25:33;;;;;;;5.47;2.00;;;;;;;4.50;100.00;99780.13;5015343;28;20481;-66
2021/01/12 10:27:59;;;;;;;12.00;2.80;;;;;;;4.41;100.00;99781.75;5010521;28;20372;-67
2021/01/12 10:30:25;;;;;;;9.63;1.40;;;;;;;4.29;100.00;99776.44;5010615;28;20276;-66
2021/01/12 10:32:51;;;;;;;6.70;1.33;;;;;;;4.25;100.00;99784.16;5009659;28;20351;-66
2021/01/12 10:35:17;;;;;;;5.80;1.17;;;;;;;4.26;100.00;99791.94;5012137;28;20113;-66
2021/01/12 10:37:44;;;;;;;6.23;1.10;;;;;;;4.34;100.00;99784.25;5010964;28;20162;-66
2021/01/12 10:40:13;;;;;;;3.77;1.07;;;;;;;4.40;100.00;99779.16;5010767;28;20308;-67
2021/01/12 10:42:42;;;;;;;9.17;1.50;;;;;;;4.24;100.00;99779.81;5009912;28;20265;-67
2021/01/12 10:45:09;;;;;;;7.73;1.33;;;;;;;4.16;100.00;99778.88;5010483;28;20715;-67
2021/01/12 10:47:35;;;;;;;7.00;1.40;;;;;;;4.22;100.00;99784.97;5009907;28;20311;-67
2021/01/12 10:50:02;;;;;;;6.33;2.13;;;;;;;4.29;100.00;99775.56;5013009;28;20343;-66
2021/01/12 10:52:32;;;;;;;5.90;1.10;;;;;;;4.33;100.00;99779.94;5013316;28;20038;-67
2021/01/12 10:54:57;;;;;;;6.93;1.57;;;;;;;4.45;100.00;99787.81;5013922;28;20273;-66
2021/01/12 10:57:23;;;;;;;8.33;1.43;;;;;;;4.47;100.00;99786.13;5030748;28;20298;-67
2021/01/12 10:59:48;;;;;;;4.60;1.17;;;;;;;4.54;100.00;99782.75;5032808;28;20037;-67
2021/01/12 11:02:14;;;;;;;6.17;1.27;;;;;;;4.58;100.00;99789.69;5033151;28;20067;-67
2021/01/12 11:04:39;;;;;;;4.83;1.17;;;;;;;4.62;100.00;99788.91;5028064;28;20100;-67
2021/01/12 11:07:05;;;;;;;5.30;1.27;;;;;;;4.67;100.00;99794.97;5015171;28;20127;-67
2021/01/12 11:09:31;;;;;;;5.40;1.00;;;;;;;4.79;100.00;99798.56;5013190;28;20092;-66
2021/01/12 11:12:03;;;;;;;12.40;1.70;;;;;;;4.81;100.00;99796.84;5013208;28;20112;-66
2021/01/12 11:14:30;;;;;;;10.43;1.38;;;;;;;4.84;100.00;99797.72;5018283;28;20540;-66
2021/01/12 11:16:55;;;;;;;9.17;1.40;;;;;;;4.82;100.00;99808.94;5032774;28;20041;-66
2021/01/12 11:19:21;;;;;;;3.67;1.20;;;;;;;4.78;100.00;99796.81;5013335;28;20399;-66
2021/01/12 11:21:50;;;;;;;6.97;1.13;;;;;;;4.80;100.00;99800.28;5013009;28;20022;-67
2021/01/12 11:24:22;;;;;;;6.57;1.20;;;;;;;4.91;100.00;99798.66;5018993;28;20277;-67
2021/01/12 11:26:49;;;;;;;6.70;1.17;;;;;;;4.94;100.00;99793.50;5025944;28;20304;-67
2021/01/12 11:29:15;;;;;;;4.00;1.10;;;;;;;4.99;100.00;99795.31;5027863;28;20048;-67
2021/01/12 11:31:41;;;;;;;3.83;1.10;;;;;;;5.18;100.00;99811.88;5032057;28;20279;-66
2021/01/12 11:34:08;;;;;;;3.90;1.00;;;;;;;5.23;100.00;99807.63;5019475;28;20022;-66